• Join FlightAware (Why Join?)
  • Login
  • US Flag 
07:24PM EDT


 

Airport Tracker/Info


-or-


 

Live Flight TrackerFlight Track Log ✈ UAL3776 ✈ 12-Apr-2013 ✈ KMIA - KIAD

Flight Track Log - Related Links

Times and Time Zones

All times are in EDT time to prevent confusion due to time zone crossing. See the UAL3776 flight status page for this flight to view local times or setup timezone preferences in your user account.

Time Position Orientation Groundspeed Altitude Reporting Facility
EDT Latitude Longitude Course Direction KTS MPH feet Rate Location/Type
12:02PM 25.7983 -80.2675 74° East 136 157 800  Level Miami Center
12:03PM 25.8031 -80.2492 74° East 168 193 1,600 1,920 Climbing Miami Center
12:04PM 25.8147 -80.1850 79° East 230 265 3,600 2,040 Climbing Miami Center
12:05PM 25.8797 -80.1797 North 273 314 5,800 1,860 Climbing Miami Center
12:05PM 25.9481 -80.2072 340° North 295 339 7,100 2,160 Climbing Miami Center
12:06PM 26.0158 -80.2575 326° Northwest 295 339 9,800 2,340 Climbing Miami Center
12:07PM 26.0856 -80.3150 323° Northwest 300 345 11,800 2,100 Climbing Miami Center
12:08PM 26.1592 -80.3728 325° Northwest 311 358 14,100 1,920 Climbing Miami Center
12:09PM 26.2439 -80.4147 336° Northwest 316 364 15,700 1,500 Climbing Miami Center
12:10PM 26.3267 -80.4494 339° North 336 387 17,200 1,620 Climbing Miami Center
12:11PM 26.4342 -80.4900 341° North 368 423 19,000 1,620 Climbing Miami Center
12:12PM 26.5253 -80.5275 340° North 380 437 20,500 1,200 Climbing Miami Center
12:13PM 26.6389 -80.5706 341° North 385 443 21,500 1,080 Climbing Miami Center
12:14PM 26.7361 -80.6086 341° North 395 455 22,700 1,080 Climbing Miami Center
12:15PM 26.8578 -80.6614 339° North 412 474 23,700 1,020 Climbing Miami Center
12:16PM 26.9694 -80.7069 340° North 417 480 24,800 1,200 Climbing Miami Center
12:17PM 27.0872 -80.7506 342° North 432 497 26,200 1,200 Climbing Miami Center
12:18PM 27.2011 -80.7939 341° North 432 497 27,200 1,020 Climbing Miami Center
12:19PM 27.3186 -80.8400 341° North 437 503 28,300 960 Climbing Miami Center
12:20PM 27.4386 -80.8817 343° North 442 509 29,200 1,500 Climbing Miami Center
12:21PM 27.5522 -80.9300 339° North 442 509 31,400 1,380 Climbing Miami Center
12:22PM 27.6572 -80.9736 340° North 428 493 32,000 960 Climbing Miami Center
12:23PM 27.7750 -81.0203 341° North 428 493 33,400 1,080 Climbing Miami Center
12:24PM 27.8842 -81.0664 340° North 428 493 34,200 600 Climbing Miami Center
12:25PM 27.9831 -81.1100 339° North 428 493 34,700 360 Climbing Miami Center
12:26PM 28.1089 -81.1594 341° North 434 499 35,000 360 Climbing Miami Center
12:27PM 28.2286 -81.2089 340° North 439 505 35,500 720 Climbing Miami Center
12:28PM 28.3419 -81.2556 340° North 446 513 36,500 660 Climbing Miami Center
12:29PM 28.4594 -81.3003 341° North 451 519 36,900 240 Climbing Miami Center
12:30PM 28.5725 -81.3419 342° North 447 514 37,000  Climbing Jacksonville Center
12:31PM 28.6894 -81.3519 356° North 454 522 37,000  Level Jacksonville Center
12:32PM 28.8233 -81.3642 355° North 467 537 37,000  Level Jacksonville Center
12:33PM 28.9569 -81.3761 356° North 472 543 37,000  Level Jacksonville Center
12:34PM 29.0886 -81.3886 355° North 472 543 37,000  Level Jacksonville Center
12:35PM 29.2203 -81.4031 355° North 477 549 37,000  Level Jacksonville Center
12:36PM 29.3539 -81.4131 356° North 477 549 37,000  Level Jacksonville Center
12:37PM 29.4836 -81.4278 354° North 477 549 37,000  Level Jacksonville Center
12:38PM 29.6361 -81.4422 355° North 483 556 37,000  Level Jacksonville Center
12:39PM 29.7678 -81.4547 355° North 483 556 37,000  Level Jacksonville Center
12:40PM 29.9078 -81.4692 355° North 483 556 37,000  Level Jacksonville Center
12:41PM 30.0417 -81.4817 355° North 483 556 37,000  Level Jacksonville Center
12:42PM 30.1817 -81.4942 356° North 483 556 37,000  Level Jacksonville Center
12:43PM 30.3194 -81.5064 356° North 493 567 37,000  Level Jacksonville Center
12:44PM 30.4656 -81.4972 North 500 575 37,000  Level Jacksonville Center
12:45PM 30.6094 -81.4853 North 508 585 37,000  Level Jacksonville Center
12:46PM 30.7514 -81.4786 North 514 592 37,000  Level Jacksonville Center
12:47PM 30.8975 -81.4667 North 514 592 37,000  Level Jacksonville Center
12:48PM 31.0414 -81.4547 North 514 592 37,000  Level Jacksonville Center
12:49PM 31.1661 -81.4189 14° North 514 592 37,000  Level Jacksonville Center
12:50PM 31.3239 -81.3386 23° Northeast 527 606 37,000  Level Jacksonville Center
12:51PM 31.4586 -81.2583 27° Northeast 539 620 37,000  Level Jacksonville Center
12:52PM 31.5975 -81.1803 26° Northeast 550 633 37,000  Level Jacksonville Center
12:53PM 31.7239 -81.1097 25° Northeast 545 627 37,000  Level Jacksonville Center
12:54PM 31.8772 -81.0233 26° Northeast 555 639 37,000  Level Jacksonville Center
12:55PM 32.0014 -80.9522 26° Northeast 555 639 37,000  Level Jacksonville Center
12:56PM 32.1567 -80.8681 25° Northeast 548 631 37,000  Level Jacksonville Center
12:57PM 32.2808 -80.7989 25° Northeast 542 624 37,000 -60 Level Jacksonville Center
12:58PM 32.4275 -80.7144 26° Northeast 537 618 36,900  Descending Jacksonville Center
12:59PM 32.5619 -80.6372 26° Northeast 532 612 37,000  Climbing Jacksonville Center
01:00PM 32.6961 -80.5597 26° Northeast 532 612 37,000  Level Jacksonville Center
01:01PM 32.8283 -80.4847 25° Northeast 526 605 37,000  Level Jacksonville Center
01:02PM 32.9522 -80.4122 26° Northeast 531 611 37,000  Level Jacksonville Center
01:03PM 33.0864 -80.3339 26° Northeast 531 611 37,000  Level Jacksonville Center
01:04PM 33.2369 -80.2528 24° Northeast 533 613 37,000  Level Jacksonville Center
01:05PM 33.3669 -80.1742 27° Northeast 533 613 37,000  Level Jacksonville Center
01:06PM 33.4986 -80.0956 26° Northeast 527 606 37,000  Level Jacksonville Center
01:07PM 33.6306 -80.0164 27° Northeast 527 606 37,000  Level Jacksonville Center
01:08PM 33.7622 -79.9397 26° Northeast 520 598 37,000  Level Jacksonville Center
01:09PM 33.8939 -79.8603 27° Northeast 520 598 37,000  Level Jacksonville Center
01:10PM 34.0214 -79.7833 27° Northeast 520 598 37,000  Level Jacksonville Center
01:11PM 34.1511 -79.7108 25° Northeast 520 598 37,000  Level Jacksonville Center
01:12PM 34.2597 -79.6442 27° Northeast 505 581 37,000  Level Jacksonville Center
01:14PM 34.4486 -79.5458 23° Northeast 472 543 37,000  Level Washington Center
01:15PM 34.5781 -79.4789 23° Northeast 484 557 37,000  Level Washington Center
01:16PM 34.7097 -79.4119 23° Northeast 494 568 37,000  Level Washington Center
01:17PM 34.8389 -79.3472 22° Northeast 499 574 37,000  Level Washington Center
01:18PM 34.9753 -79.3256 North 481 554 37,000  Level Washington Center
01:19PM 35.1078 -79.2886 13° North 486 559 37,000  Level Washington Center
01:20PM 35.2317 -79.1978 31° Northeast 491 565 37,000  Level Washington Center
01:21PM 35.3486 -79.1214 28° Northeast 515 593 37,000  Level Washington Center
01:22PM 35.4844 -79.0433 25° Northeast 509 586 37,000  Level Washington Center
01:23PM 35.6139 -78.9697 25° Northeast 499 574 37,000  Level Washington Center
01:24PM 35.7433 -78.8958 25° Northeast 499 574 37,000 -720 Level Washington Center
01:25PM 35.8706 -78.8192 26° Northeast 499 574 35,600 -2,100 Descending Washington Center
01:26PM 36.0061 -78.7425 25° Northeast 506 582 32,800 -2,760 Descending Washington Center
01:27PM 36.1375 -78.6656 25° Northeast 511 588 30,100 -2,880 Descending Washington Center
01:28PM 36.2689 -78.5881 25° Northeast 511 588 27,100 -1,560 Descending Washington Center
01:29PM 36.3939 -78.5131 26° Northeast 511 588 27,000 -60 Descending Washington Center
01:30PM 36.5208 -78.4375 26° Northeast 506 582 27,000  Level Washington Center
01:31PM 36.6497 -78.3619 25° Northeast 506 582 27,000  Level Washington Center
01:32PM 36.7642 -78.2936 26° Northeast 506 582 27,000  Level Washington Center
01:33PM 36.8953 -78.2150 26° Northeast 506 582 27,000 -600 Level Washington Center
01:34PM 37.0178 -78.1386 26° Northeast 506 582 25,900 -1,320 Descending Washington Center
01:35PM 37.1317 -78.0744 24° Northeast 472 543 24,400 -1,440 Descending Washington Center
01:36PM 37.2353 -78.0100 26° Northeast 436 502 23,100 -1,200 Descending Washington Center
01:37PM 37.3347 -77.9481 26° Northeast 404 465 22,000 -600 Descending Washington Center
01:38PM 37.4317 -77.8881 26° Northeast 392 451 22,000  Level Washington Center
01:39PM 37.5331 -77.8256 26° Northeast 387 445 22,000 -120 Level Washington Center
01:40PM 37.6364 -77.7658 25° Northeast 392 451 21,800 -600 Descending Washington Center
01:41PM 37.7375 -77.7083 24° Northeast 392 451 20,800 -1,380 Descending Washington Center
01:42PM 37.8364 -77.6506 25° Northeast 392 451 19,100 -2,220 Descending Washington Center
01:43PM 37.9314 -77.5928 26° Northeast 386 444 16,400 -2,520 Descending Washington Center
01:44PM 38.0197 -77.5397 25° Northeast 367 422 14,100 -2,400 Descending Washington Center
01:45PM 38.1125 -77.4867 24° Northeast 344 396 11,700 -2,100 Descending Washington Center
01:46PM 38.1861 -77.4383 27° Northeast 331 381 10,000 -900 Descending Washington Center
01:47PM 38.2744 -77.3903 23° Northeast 319 367 10,000 -360 Level Washington Center
01:48PM 38.3500 -77.3522 22° Northeast 319 367 9,300 -1,200 Descending Washington Center
01:49PM 38.4314 -77.3542 359° North 301 346 7,700 -1,620 Descending Washington Center
01:50PM 38.5106 -77.3589 357° North 289 333 6,100 -1,380 Descending Washington Center
01:51PM 38.5814 -77.3631 357° North 276 318 5,000 -660 Descending Washington Center
01:51PM 38.6500 -77.3667 358° North 236 272 5,000  Level Potomac TRACON
01:52PM 38.7167 -77.3667 360° North 223 257 5,000 -300 Level Potomac TRACON
01:53PM 38.7833 -77.3500 11° North 231 266 4,400 -540 Descending Potomac TRACON
01:54PM 38.8333 -77.3500 360° North 231 266 4,000 -240 Descending Potomac TRACON
01:56PM 38.9000 -77.3500 360° North 231 266 4,000 -540 Level Potomac TRACON
01:57PM 38.9474 -77.4599 North  Level Estimated
01:58PM 39.0167 -77.3500 North 215 247 2,500  Level Potomac TRACON
01:59PM 38.9333 -77.4500 195° South  Level FlightAware Approximate
02:06PM 38.9474 -77.4599 195° South  Level Estimated
02:07PM 38.9474 -77.4599 195° South  Level Estimated
02:08PM 38.9474 -77.4599 195° South  Level Estimated
02:09PM 38.9474 -77.4599 195° South  Level Estimated
02:10PM 38.9474 -77.4599 195° South  Level Estimated